Pagina principale
METAR-TAF:

METAR-TAF

Aeroporti :

Dole, Francia

latitudine: 47-02-34N, longitudine: 005-26-06E, altezza: 196 m

Osservazione

Il bollettino è stato emesso 32 minuti fa, alle 12:00 UTC
Vento 5 kt da direzioni variabili
Temperature 34°C
Umidità 41%
Pressione 1022 hPa
Visibilità 10 km o più
nessuna nube inferiore a 1500 m e nessun cumulonembo

METAR: LFGJ 261200Z AUTO VRB05KT CAVOK 34/19 Q1022 NOSIG

Ora: 14:32 (12:32 UTC)

Previsione

Il bollettino è stato emesso 1 ora e 32 minuti fa, alle 11:00 UTC
Previsione valida dal 26 alle 12 UTC al 26 alle 21 UTC
Vento 4 kt da est
Visibilità 10 km o più
nessuna nube inferiore a 1500 m e nessun cumulonembo

TAF: LFGJ 261100Z 2612/2621 08004KT CAVOK

Osservazioni e previsioni meteorologiche di più di 4000 aeroporti (messaggi METAR e TAF).

Le stazioni disponibili sono rappresentate dai dischi gialli e rossi sulla carta.

Puntare il mouse per vedere il nome della stazione.

Clicca sopra per visualizzare le osservazioni e previsioni meteorologiche.

Per cambiare la mappa : fare clic sui pulsanti verdi con una croce nera per ingrandire, il pulsante verde con un trattino per diminuire, o sulla freccia verde per le mappe adiacenti.


METAR-TAF: